sensor_id;sensor_type;location;lat;lon;timestamp;temperature;humidity
23100;DHT22;53791;50.696;4.396;2022-10-31T00:00:48;15.30;99.90
23100;DHT22;53791;50.696;4.396;2022-10-31T00:03:16;15.30;99.90
23100;DHT22;53791;50.696;4.396;2022-10-31T00:05:46;15.30;99.90
23100;DHT22;53791;50.696;4.396;2022-10-31T00:08:15;15.30;99.90
23100;DHT22;53791;50.696;4.396;2022-10-31T00:10:43;15.10;99.90
23100;DHT22;53791;50.696;4.396;2022-10-31T00:13:12;14.90;99.90
23100;DHT22;53791;50.696;4.396;2022-10-31T00:15:41;14.90;99.90
23100;DHT22;53791;50.696;4.396;2022-10-31T00:18:09;14.80;99.90
23100;DHT22;53791;50.696;4.396;2022-10-31T00:20:38;14.60;99.90
23100;DHT22;53791;50.696;4.396;2022-10-31T00:23:07;14.50;99.90
23100;DHT22;53791;50.696;4.396;2022-10-31T00:25:37;14.60;99.90
23100;DHT22;53791;50.696;4.396;2022-10-31T00:28:07;14.80;99.90
23100;DHT22;53791;50.696;4.396;2022-10-31T00:30:36;14.90;99.90
23100;DHT22;53791;50.696;4.396;2022-10-31T00:33:04;14.80;99.90
23100;DHT22;53791;50.696;4.396;2022-10-31T00:35:31;14.70;99.90
23100;DHT22;53791;50.696;4.396;2022-10-31T00:37:59;14.70;99.90
23100;DHT22;53791;50.696;4.396;2022-10-31T00:40:27;14.60;99.90
23100;DHT22;53791;50.696;4.396;2022-10-31T00:42:55;14.50;99.90
23100;DHT22;53791;50.696;4.396;2022-10-31T00:45:22;14.60;99.90
23100;DHT22;53791;50.696;4.396;2022-10-31T00:47:50;14.70;99.90
23100;DHT22;53791;50.696;4.396;2022-10-31T00:50:17;14.70;99.90
23100;DHT22;53791;50.696;4.396;2022-10-31T00:52:45;14.80;99.90
23100;DHT22;53791;50.696;4.396;2022-10-31T00:55:12;14.90;99.90
23100;DHT22;53791;50.696;4.396;2022-10-31T00:57:40;14.90;99.90
23100;DHT22;53791;50.696;4.396;2022-10-31T01:00:08;14.90;99.90
23100;DHT22;53791;50.696;4.396;2022-10-31T01:02:36;14.90;99.90
23100;DHT22;53791;50.696;4.396;2022-10-31T01:05:03;14.90;99.90
23100;DHT22;53791;50.696;4.396;2022-10-31T01:07:31;14.90;99.90
23100;DHT22;53791;50.696;4.396;2022-10-31T01:09:58;14.90;99.90
23100;DHT22;53791;50.696;4.396;2022-10-31T01:12:26;14.80;99.90
23100;DHT22;53791;50.696;4.396;2022-10-31T01:14:53;14.60;99.90
23100;DHT22;53791;50.696;4.396;2022-10-31T01:17:21;14.70;99.90
23100;DHT22;53791;50.696;4.396;2022-10-31T01:19:48;14.60;99.90
23100;DHT22;53791;50.696;4.396;2022-10-31T01:22:16;14.60;99.90
23100;DHT22;53791;50.696;4.396;2022-10-31T01:24:43;14.60;99.90
23100;DHT22;53791;50.696;4.396;2022-10-31T01:27:11;14.70;99.90
23100;DHT22;53791;50.696;4.396;2022-10-31T01:29:38;14.60;99.90
23100;DHT22;53791;50.696;4.396;2022-10-31T01:32:06;14.70;99.90
23100;DHT22;53791;50.696;4.396;2022-10-31T01:34:34;14.70;99.90
23100;DHT22;53791;50.696;4.396;2022-10-31T01:37:01;14.60;99.90
23100;DHT22;53791;50.696;4.396;2022-10-31T01:39:29;14.20;99.90
23100;DHT22;53791;50.696;4.396;2022-10-31T01:41:57;14.20;99.90
23100;DHT22;53791;50.696;4.396;2022-10-31T01:47:18;14.30;99.90
23100;DHT22;53791;50.696;4.396;2022-10-31T01:49:46;14.30;99.90
23100;DHT22;53791;50.696;4.396;2022-10-31T01:52:35;14.30;99.90
23100;DHT22;53791;50.696;4.396;2022-10-31T01:55:06;14.40;99.90
23100;DHT22;53791;50.696;4.396;2022-10-31T01:57:33;14.30;99.90
23100;DHT22;53791;50.696;4.396;2022-10-31T02:00:05;14.20;99.90
23100;DHT22;53791;50.696;4.396;2022-10-31T02:02:32;14.20;99.90
23100;DHT22;53791;50.696;4.396;2022-10-31T02:05:02;14.20;99.90
23100;DHT22;53791;50.696;4.396;2022-10-31T02:10:21;14.10;99.90
23100;DHT22;53791;50.696;4.396;2022-10-31T02:12:51;14.10;99.90
23100;DHT22;53791;50.696;4.396;2022-10-31T02:15:19;13.80;99.90
23100;DHT22;53791;50.696;4.396;2022-10-31T02:17:47;13.80;99.90
23100;DHT22;53791;50.696;4.396;2022-10-31T02:20:23;13.70;99.90
23100;DHT22;53791;50.696;4.396;2022-10-31T02:34:51;13.50;99.90
23100;DHT22;53791;50.696;4.396;2022-10-31T02:40:33;13.50;99.90
23100;DHT22;53791;50.696;4.396;2022-10-31T02:43:09;13.50;99.90
23100;DHT22;53791;50.696;4.396;2022-10-31T02:48:18;13.60;99.90
23100;DHT22;53791;50.696;4.396;2022-10-31T02:50:55;13.60;99.90
23100;DHT22;53791;50.696;4.396;2022-10-31T02:53:21;13.50;99.90
23100;DHT22;53791;50.696;4.396;2022-10-31T02:55:58;13.50;99.90
23100;DHT22;53791;50.696;4.396;2022-10-31T02:58:28;13.50;99.90
23100;DHT22;53791;50.696;4.396;2022-10-31T03:01:10;13.50;99.90
23100;DHT22;53791;50.696;4.396;2022-10-31T03:03:46;13.50;99.90
23100;DHT22;53791;50.696;4.396;2022-10-31T03:09:02;13.40;99.90
23100;DHT22;53791;50.696;4.396;2022-10-31T03:11:53;13.10;99.90
23100;DHT22;53791;50.696;4.396;2022-10-31T03:14:23;13.10;99.90
23100;DHT22;53791;50.696;4.396;2022-10-31T03:16:51;12.90;99.90
23100;DHT22;53791;50.696;4.396;2022-10-31T03:19:34;12.80;99.90
23100;DHT22;53791;50.696;4.396;2022-10-31T03:22:02;12.90;99.90
23100;DHT22;53791;50.696;4.396;2022-10-31T03:24:33;12.90;99.90
23100;DHT22;53791;50.696;4.396;2022-10-31T03:27:01;12.60;99.90
23100;DHT22;53791;50.696;4.396;2022-10-31T03:29:32;12.60;99.90
23100;DHT22;53791;50.696;4.396;2022-10-31T03:32:08;12.80;99.90
23100;DHT22;53791;50.696;4.396;2022-10-31T03:34:32;12.90;99.90
23100;DHT22;53791;50.696;4.396;2022-10-31T03:37:03;13.00;99.90
23100;DHT22;53791;50.696;4.396;2022-10-31T03:39:32;13.00;99.90
23100;DHT22;53791;50.696;4.396;2022-10-31T03:42:05;13.00;99.90
23100;DHT22;53791;50.696;4.396;2022-10-31T03:44:35;13.10;99.90
23100;DHT22;53791;50.696;4.396;2022-10-31T03:47:04;13.10;99.90
23100;DHT22;53791;50.696;4.396;2022-10-31T03:49:33;13.10;99.90
23100;DHT22;53791;50.696;4.396;2022-10-31T03:52:24;13.10;99.90
23100;DHT22;53791;50.696;4.396;2022-10-31T03:54:46;13.10;99.90
23100;DHT22;53791;50.696;4.396;2022-10-31T03:57:29;12.90;99.90
23100;DHT22;53791;50.696;4.396;2022-10-31T04:00:16;12.90;99.90
23100;DHT22;53791;50.696;4.396;2022-10-31T04:02:43;12.80;99.90
23100;DHT22;53791;50.696;4.396;2022-10-31T04:05:11;12.70;99.90
23100;DHT22;53791;50.696;4.396;2022-10-31T04:07:45;12.60;99.90
23100;DHT22;53791;50.696;4.396;2022-10-31T04:10:13;12.50;99.90
23100;DHT22;53791;50.696;4.396;2022-10-31T04:12:43;12.30;99.90
23100;DHT22;53791;50.696;4.396;2022-10-31T04:15:11;12.20;99.90
23100;DHT22;53791;50.696;4.396;2022-10-31T04:17:41;12.20;99.90
23100;DHT22;53791;50.696;4.396;2022-10-31T04:20:10;12.20;99.90
23100;DHT22;53791;50.696;4.396;2022-10-31T04:22:38;12.40;99.90
23100;DHT22;53791;50.696;4.396;2022-10-31T04:25:06;12.50;99.90
23100;DHT22;53791;50.696;4.396;2022-10-31T04:27:34;12.40;99.90
23100;DHT22;53791;50.696;4.396;2022-10-31T04:30:01;12.40;99.90
23100;DHT22;53791;50.696;4.396;2022-10-31T04:32:28;12.50;99.90
23100;DHT22;53791;50.696;4.396;2022-10-31T04:34:56;12.60;99.90
23100;DHT22;53791;50.696;4.396;2022-10-31T04:37:23;12.50;99.90
23100;DHT22;53791;50.696;4.396;2022-10-31T04:39:51;12.50;99.90
23100;DHT22;53791;50.696;4.396;2022-10-31T04:42:18;12.60;99.90
23100;DHT22;53791;50.696;4.396;2022-10-31T04:44:46;12.60;99.90
23100;DHT22;53791;50.696;4.396;2022-10-31T04:47:13;12.70;99.90
23100;DHT22;53791;50.696;4.396;2022-10-31T04:49:41;12.70;99.90
23100;DHT22;53791;50.696;4.396;2022-10-31T04:52:08;12.80;99.90
23100;DHT22;53791;50.696;4.396;2022-10-31T04:54:36;12.80;99.90
23100;DHT22;53791;50.696;4.396;2022-10-31T04:57:03;12.80;99.90
23100;DHT22;53791;50.696;4.396;2022-10-31T04:59:31;12.70;99.90
23100;DHT22;53791;50.696;4.396;2022-10-31T05:01:58;12.60;99.90
23100;DHT22;53791;50.696;4.396;2022-10-31T05:04:26;12.40;99.90
23100;DHT22;53791;50.696;4.396;2022-10-31T05:06:53;12.30;99.90
23100;DHT22;53791;50.696;4.396;2022-10-31T05:09:21;12.30;99.90
23100;DHT22;53791;50.696;4.396;2022-10-31T05:11:48;12.20;99.90
23100;DHT22;53791;50.696;4.396;2022-10-31T05:14:16;12.20;99.90
23100;DHT22;53791;50.696;4.396;2022-10-31T05:16:43;12.20;99.90
23100;DHT22;53791;50.696;4.396;2022-10-31T05:19:11;12.20;99.90
23100;DHT22;53791;50.696;4.396;2022-10-31T05:21:38;12.20;99.90
23100;DHT22;53791;50.696;4.396;2022-10-31T05:24:06;12.30;99.90
23100;DHT22;53791;50.696;4.396;2022-10-31T05:26:34;12.20;99.90
23100;DHT22;53791;50.696;4.396;2022-10-31T05:29:01;12.20;99.90
23100;DHT22;53791;50.696;4.396;2022-10-31T05:31:29;12.20;99.90
23100;DHT22;53791;50.696;4.396;2022-10-31T05:33:56;12.20;99.90
23100;DHT22;53791;50.696;4.396;2022-10-31T05:36:24;12.20;99.90
23100;DHT22;53791;50.696;4.396;2022-10-31T05:38:51;12.10;99.90
23100;DHT22;53791;50.696;4.396;2022-10-31T05:41:19;12.10;99.90
23100;DHT22;53791;50.696;4.396;2022-10-31T05:43:46;12.00;99.90
23100;DHT22;53791;50.696;4.396;2022-10-31T05:46:14;12.00;99.90
23100;DHT22;53791;50.696;4.396;2022-10-31T05:48:41;12.00;99.90
23100;DHT22;53791;50.696;4.396;2022-10-31T05:51:09;12.00;99.90
23100;DHT22;53791;50.696;4.396;2022-10-31T05:53:36;12.10;99.90
23100;DHT22;53791;50.696;4.396;2022-10-31T05:56:04;12.10;99.90
23100;DHT22;53791;50.696;4.396;2022-10-31T05:58:32;12.10;99.90
23100;DHT22;53791;50.696;4.396;2022-10-31T06:00:59;12.20;99.90
23100;DHT22;53791;50.696;4.396;2022-10-31T06:03:27;12.10;99.90
23100;DHT22;53791;50.696;4.396;2022-10-31T06:05:54;12.20;99.90
23100;DHT22;53791;50.696;4.396;2022-10-31T06:08:22;12.30;99.90
23100;DHT22;53791;50.696;4.396;2022-10-31T06:10:49;12.30;99.90
23100;DHT22;53791;50.696;4.396;2022-10-31T06:13:17;12.50;99.90
23100;DHT22;53791;50.696;4.396;2022-10-31T06:15:44;12.70;99.90
23100;DHT22;53791;50.696;4.396;2022-10-31T06:18:12;12.60;99.90
23100;DHT22;53791;50.696;4.396;2022-10-31T06:20:39;12.50;99.90
23100;DHT22;53791;50.696;4.396;2022-10-31T06:23:07;12.40;99.90
23100;DHT22;53791;50.696;4.396;2022-10-31T06:25:34;12.30;99.90
23100;DHT22;53791;50.696;4.396;2022-10-31T06:28:02;12.30;99.90
23100;DHT22;53791;50.696;4.396;2022-10-31T06:30:29;12.20;99.90
23100;DHT22;53791;50.696;4.396;2022-10-31T06:33:02;12.20;99.90
23100;DHT22;53791;50.696;4.396;2022-10-31T06:35:30;12.10;99.90
23100;DHT22;53791;50.696;4.396;2022-10-31T06:37:58;12.20;99.90
23100;DHT22;53791;50.696;4.396;2022-10-31T06:40:25;12.10;99.90
23100;DHT22;53791;50.696;4.396;2022-10-31T06:43:00;12.10;99.90
23100;DHT22;53791;50.696;4.396;2022-10-31T06:45:28;12.10;99.90
23100;DHT22;53791;50.696;4.396;2022-10-31T06:47:56;12.30;99.90
23100;DHT22;53791;50.696;4.396;2022-10-31T06:50:24;12.10;99.90
23100;DHT22;53791;50.696;4.396;2022-10-31T06:52:53;12.20;99.90
23100;DHT22;53791;50.696;4.396;2022-10-31T06:55:22;12.20;99.90
23100;DHT22;53791;50.696;4.396;2022-10-31T06:57:55;12.30;99.90
23100;DHT22;53791;50.696;4.396;2022-10-31T07:00:24;12.30;99.90
23100;DHT22;53791;50.696;4.396;2022-10-31T07:03:05;12.30;99.90
23100;DHT22;53791;50.696;4.396;2022-10-31T07:05:29;12.40;99.90
23100;DHT22;53791;50.696;4.396;2022-10-31T07:08:04;12.50;99.90
23100;DHT22;53791;50.696;4.396;2022-10-31T07:10:28;12.50;99.90
23100;DHT22;53791;50.696;4.396;2022-10-31T07:12:58;12.50;99.90
23100;DHT22;53791;50.696;4.396;2022-10-31T07:15:27;12.60;99.90
23100;DHT22;53791;50.696;4.396;2022-10-31T07:18:00;12.60;99.90
23100;DHT22;53791;50.696;4.396;2022-10-31T07:20:29;12.70;99.90
23100;DHT22;53791;50.696;4.396;2022-10-31T07:22:57;12.90;99.90
23100;DHT22;53791;50.696;4.396;2022-10-31T07:25:25;13.00;99.90
23100;DHT22;53791;50.696;4.396;2022-10-31T07:27:53;12.90;99.90
23100;DHT22;53791;50.696;4.396;2022-10-31T07:30:20;12.90;99.90
23100;DHT22;53791;50.696;4.396;2022-10-31T07:32:49;12.80;99.90
23100;DHT22;53791;50.696;4.396;2022-10-31T07:35:23;12.70;99.90
23100;DHT22;53791;50.696;4.396;2022-10-31T07:37:50;12.70;99.90
23100;DHT22;53791;50.696;4.396;2022-10-31T07:40:18;12.90;99.90
23100;DHT22;53791;50.696;4.396;2022-10-31T07:42:48;13.00;99.90
23100;DHT22;53791;50.696;4.396;2022-10-31T07:45:18;13.10;99.90
23100;DHT22;53791;50.696;4.396;2022-10-31T07:47:50;13.30;99.90
23100;DHT22;53791;50.696;4.396;2022-10-31T07:50:26;13.30;99.90
23100;DHT22;53791;50.696;4.396;2022-10-31T07:53:10;13.40;99.90
23100;DHT22;53791;50.696;4.396;2022-10-31T07:55:38;13.60;99.90
23100;DHT22;53791;50.696;4.396;2022-10-31T07:58:08;13.80;99.90
23100;DHT22;53791;50.696;4.396;2022-10-31T08:00:37;13.80;99.90
23100;DHT22;53791;50.696;4.396;2022-10-31T08:03:10;13.40;99.90
23100;DHT22;53791;50.696;4.396;2022-10-31T08:05:38;13.20;99.90
23100;DHT22;53791;50.696;4.396;2022-10-31T08:08:07;13.10;99.90
23100;DHT22;53791;50.696;4.396;2022-10-31T08:10:35;13.00;99.90
23100;DHT22;53791;50.696;4.396;2022-10-31T08:13:11;13.00;99.90
23100;DHT22;53791;50.696;4.396;2022-10-31T08:15:40;13.00;99.90
23100;DHT22;53791;50.696;4.396;2022-10-31T08:18:13;13.00;99.90
23100;DHT22;53791;50.696;4.396;2022-10-31T08:20:43;13.20;99.90
23100;DHT22;53791;50.696;4.396;2022-10-31T08:23:12;13.30;99.90
23100;DHT22;53791;50.696;4.396;2022-10-31T08:25:40;13.40;99.90
23100;DHT22;53791;50.696;4.396;2022-10-31T08:28:10;13.50;99.90
23100;DHT22;53791;50.696;4.396;2022-10-31T08:30:38;13.70;99.90
23100;DHT22;53791;50.696;4.396;2022-10-31T08:33:11;13.80;99.90
23100;DHT22;53791;50.696;4.396;2022-10-31T08:35:39;13.70;99.90
23100;DHT22;53791;50.696;4.396;2022-10-31T08:38:09;13.60;99.90
23100;DHT22;53791;50.696;4.396;2022-10-31T08:40:37;13.50;99.90
23100;DHT22;53791;50.696;4.396;2022-10-31T08:43:10;13.40;99.90
23100;DHT22;53791;50.696;4.396;2022-10-31T08:45:35;13.40;99.90
23100;DHT22;53791;50.696;4.396;2022-10-31T08:48:05;13.40;99.90
23100;DHT22;53791;50.696;4.396;2022-10-31T08:50:34;13.30;99.90
23100;DHT22;53791;50.696;4.396;2022-10-31T08:53:05;13.20;99.90
23100;DHT22;53791;50.696;4.396;2022-10-31T08:55:36;13.30;99.90
23100;DHT22;53791;50.696;4.396;2022-10-31T08:58:07;13.40;99.90
23100;DHT22;53791;50.696;4.396;2022-10-31T09:00:34;13.60;99.90
23100;DHT22;53791;50.696;4.396;2022-10-31T09:03:05;13.60;99.90
23100;DHT22;53791;50.696;4.396;2022-10-31T09:05:33;13.50;99.90
23100;DHT22;53791;50.696;4.396;2022-10-31T09:08:02;13.50;99.90
23100;DHT22;53791;50.696;4.396;2022-10-31T09:10:31;13.70;99.90
23100;DHT22;53791;50.696;4.396;2022-10-31T09:13:01;13.80;99.90
23100;DHT22;53791;50.696;4.396;2022-10-31T09:15:30;14.00;99.90
23100;DHT22;53791;50.696;4.396;2022-10-31T09:17:58;14.00;99.90
23100;DHT22;53791;50.696;4.396;2022-10-31T09:20:27;13.90;99.90
23100;DHT22;53791;50.696;4.396;2022-10-31T09:23:02;13.90;99.90
23100;DHT22;53791;50.696;4.396;2022-10-31T09:25:31;13.90;99.90
23100;DHT22;53791;50.696;4.396;2022-10-31T09:28:04;13.90;99.90
23100;DHT22;53791;50.696;4.396;2022-10-31T09:30:40;13.90;99.90
23100;DHT22;53791;50.696;4.396;2022-10-31T09:33:10;13.90;99.90
23100;DHT22;53791;50.696;4.396;2022-10-31T09:35:38;14.00;99.90
23100;DHT22;53791;50.696;4.396;2022-10-31T09:38:14;14.20;99.90
23100;DHT22;53791;50.696;4.396;2022-10-31T09:40:45;14.20;99.90
23100;DHT22;53791;50.696;4.396;2022-10-31T09:54:28;14.40;99.90
23100;DHT22;53791;50.696;4.396;2022-10-31T09:56:51;14.30;99.90
23100;DHT22;53791;50.696;4.396;2022-10-31T09:59:30;14.30;99.90
23100;DHT22;53791;50.696;4.396;2022-10-31T10:02:09;14.40;99.90
23100;DHT22;53791;50.696;4.396;2022-10-31T10:04:48;14.60;99.90
23100;DHT22;53791;50.696;4.396;2022-10-31T10:09:49;14.80;99.90
23100;DHT22;53791;50.696;4.396;2022-10-31T10:17:45;15.10;99.90
23100;DHT22;53791;50.696;4.396;2022-10-31T10:20:31;15.10;99.90
23100;DHT22;53791;50.696;4.396;2022-10-31T10:25:41;15.50;99.90
23100;DHT22;53791;50.696;4.396;2022-10-31T10:28:19;15.70;99.90
23100;DHT22;53791;50.696;4.396;2022-10-31T10:31:01;15.70;99.90
23100;DHT22;53791;50.696;4.396;2022-10-31T10:33:31;15.80;99.90
23100;DHT22;53791;50.696;4.396;2022-10-31T10:36:02;15.80;99.90
23100;DHT22;53791;50.696;4.396;2022-10-31T10:38:34;15.70;99.90
23100;DHT22;53791;50.696;4.396;2022-10-31T10:41:15;15.60;99.90
23100;DHT22;53791;50.696;4.396;2022-10-31T10:43:37;15.50;99.90
23100;DHT22;53791;50.696;4.396;2022-10-31T10:49:32;15.50;99.90
23100;DHT22;53791;50.696;4.396;2022-10-31T10:52:08;15.40;99.90
23100;DHT22;53791;50.696;4.396;2022-10-31T10:54:59;15.50;99.90
23100;DHT22;53791;50.696;4.396;2022-10-31T10:57:42;15.30;99.90
23100;DHT22;53791;50.696;4.396;2022-10-31T11:00:24;15.30;99.90
23100;DHT22;53791;50.696;4.396;2022-10-31T11:02:49;15.40;99.90
23100;DHT22;53791;50.696;4.396;2022-10-31T11:05:36;15.40;99.90
23100;DHT22;53791;50.696;4.396;2022-10-31T11:08:05;15.40;99.90
23100;DHT22;53791;50.696;4.396;2022-10-31T11:10:34;15.50;99.90
23100;DHT22;53791;50.696;4.396;2022-10-31T11:16:03;15.70;99.90
23100;DHT22;53791;50.696;4.396;2022-10-31T11:18:30;15.80;99.90
23100;DHT22;53791;50.696;4.396;2022-10-31T11:20:59;16.00;99.90
23100;DHT22;53791;50.696;4.396;2022-10-31T11:23:28;16.30;99.90
23100;DHT22;53791;50.696;4.396;2022-10-31T11:25:58;16.50;99.90
23100;DHT22;53791;50.696;4.396;2022-10-31T11:28:27;16.60;99.90
23100;DHT22;53791;50.696;4.396;2022-10-31T11:31:00;16.70;99.90
23100;DHT22;53791;50.696;4.396;2022-10-31T11:33:48;16.70;99.90
23100;DHT22;53791;50.696;4.396;2022-10-31T11:36:39;16.90;99.90
23100;DHT22;53791;50.696;4.396;2022-10-31T11:38:46;17.00;99.90
23100;DHT22;53791;50.696;4.396;2022-10-31T11:41:16;17.10;99.90
23100;DHT22;53791;50.696;4.396;2022-10-31T11:43:55;17.20;99.90
23100;DHT22;53791;50.696;4.396;2022-10-31T11:46:27;17.30;99.90
23100;DHT22;53791;50.696;4.396;2022-10-31T11:48:51;17.30;99.90
23100;DHT22;53791;50.696;4.396;2022-10-31T11:51:26;17.30;99.90
23100;DHT22;53791;50.696;4.396;2022-10-31T11:53:56;17.30;99.90
23100;DHT22;53791;50.696;4.396;2022-10-31T11:56:24;17.40;99.90
23100;DHT22;53791;50.696;4.396;2022-10-31T11:59:02;17.50;99.90
23100;DHT22;53791;50.696;4.396;2022-10-31T12:01:30;17.60;99.90
23100;DHT22;53791;50.696;4.396;2022-10-31T12:04:06;17.70;99.90
23100;DHT22;53791;50.696;4.396;2022-10-31T12:06:36;17.70;99.90
23100;DHT22;53791;50.696;4.396;2022-10-31T12:09:25;17.80;99.90
23100;DHT22;53791;50.696;4.396;2022-10-31T12:20:21;18.00;99.90
23100;DHT22;53791;50.696;4.396;2022-10-31T12:33:47;17.80;99.90
23100;DHT22;53791;50.696;4.396;2022-10-31T12:36:36;17.80;99.90
23100;DHT22;53791;50.696;4.396;2022-10-31T12:39:17;17.80;99.90
23100;DHT22;53791;50.696;4.396;2022-10-31T12:44:51;17.80;99.90
23100;DHT22;53791;50.696;4.396;2022-10-31T12:55:48;18.30;99.90
23100;DHT22;53791;50.696;4.396;2022-10-31T12:58:31;18.40;99.90
23100;DHT22;53791;50.696;4.396;2022-10-31T13:01:14;18.50;99.90
23100;DHT22;53791;50.696;4.396;2022-10-31T13:03:55;18.60;99.90
23100;DHT22;53791;50.696;4.396;2022-10-31T13:06:25;18.70;99.90
23100;DHT22;53791;50.696;4.396;2022-10-31T13:08:58;18.60;99.90
23100;DHT22;53791;50.696;4.396;2022-10-31T13:11:29;18.70;99.90
23100;DHT22;53791;50.696;4.396;2022-10-31T13:14:09;18.60;99.90
23100;DHT22;53791;50.696;4.396;2022-10-31T13:16:49;18.70;99.90
23100;DHT22;53791;50.696;4.396;2022-10-31T13:22:22;18.80;99.90
23100;DHT22;53791;50.696;4.396;2022-10-31T13:27:45;18.80;99.90
23100;DHT22;53791;50.696;4.396;2022-10-31T13:30:20;18.90;99.90
23100;DHT22;53791;50.696;4.396;2022-10-31T13:32:58;18.90;99.90
23100;DHT22;53791;50.696;4.396;2022-10-31T13:35:40;19.00;99.90
23100;DHT22;53791;50.696;4.396;2022-10-31T13:38:32;19.10;99.90
23100;DHT22;53791;50.696;4.396;2022-10-31T13:43:59;19.30;99.90
23100;DHT22;53791;50.696;4.396;2022-10-31T13:46:37;19.50;99.90
23100;DHT22;53791;50.696;4.396;2022-10-31T13:51:51;19.70;99.90
23100;DHT22;53791;50.696;4.396;2022-10-31T13:54:32;19.70;99.90
23100;DHT22;53791;50.696;4.396;2022-10-31T13:56:53;19.70;99.90
23100;DHT22;53791;50.696;4.396;2022-10-31T13:59:22;19.70;99.90
23100;DHT22;53791;50.696;4.396;2022-10-31T14:02:01;19.70;99.90
23100;DHT22;53791;50.696;4.396;2022-10-31T14:04:44;19.80;99.90
23100;DHT22;53791;50.696;4.396;2022-10-31T14:07:16;19.70;99.90
23100;DHT22;53791;50.696;4.396;2022-10-31T14:12:46;19.70;99.90
23100;DHT22;53791;50.696;4.396;2022-10-31T14:15:25;19.70;99.90
23100;DHT22;53791;50.696;4.396;2022-10-31T14:17:56;19.70;99.90
23100;DHT22;53791;50.696;4.396;2022-10-31T14:20:32;19.70;99.90
23100;DHT22;53791;50.696;4.396;2022-10-31T14:31:45;19.50;99.90
23100;DHT22;53791;50.696;4.396;2022-10-31T14:34:27;19.20;99.90
23100;DHT22;53791;50.696;4.396;2022-10-31T14:37:04;19.10;99.90
23100;DHT22;53791;50.696;4.396;2022-10-31T14:39:36;18.90;99.90
23100;DHT22;53791;50.696;4.396;2022-10-31T14:42:27;18.70;99.90
23100;DHT22;53791;50.696;4.396;2022-10-31T14:48:25;18.50;99.90
23100;DHT22;53791;50.696;4.396;2022-10-31T14:56:33;18.50;99.90
23100;DHT22;53791;50.696;4.396;2022-10-31T14:59:05;18.40;99.90
23100;DHT22;53791;50.696;4.396;2022-10-31T15:01:38;18.50;99.90
23100;DHT22;53791;50.696;4.396;2022-10-31T15:04:13;18.50;99.90
23100;DHT22;53791;50.696;4.396;2022-10-31T15:06:46;18.70;99.90
23100;DHT22;53791;50.696;4.396;2022-10-31T15:09:25;18.80;99.90
23100;DHT22;53791;50.696;4.396;2022-10-31T15:11:54;18.80;99.90
23100;DHT22;53791;50.696;4.396;2022-10-31T15:14:30;18.80;99.90
23100;DHT22;53791;50.696;4.396;2022-10-31T15:16:56;18.70;99.90
23100;DHT22;53791;50.696;4.396;2022-10-31T15:19:27;18.60;99.90
23100;DHT22;53791;50.696;4.396;2022-10-31T15:21:56;18.50;99.90
23100;DHT22;53791;50.696;4.396;2022-10-31T15:24:30;18.40;99.90
23100;DHT22;53791;50.696;4.396;2022-10-31T15:26:56;18.30;99.90
23100;DHT22;53791;50.696;4.396;2022-10-31T15:29:26;18.20;99.90
23100;DHT22;53791;50.696;4.396;2022-10-31T15:32:16;18.10;99.90
23100;DHT22;53791;50.696;4.396;2022-10-31T15:34:42;18.10;99.90
23100;DHT22;53791;50.696;4.396;2022-10-31T15:37:15;18.00;99.90
23100;DHT22;53791;50.696;4.396;2022-10-31T15:39:44;18.00;99.90
23100;DHT22;53791;50.696;4.396;2022-10-31T15:42:29;17.90;99.90
23100;DHT22;53791;50.696;4.396;2022-10-31T15:45:03;17.90;99.90
23100;DHT22;53791;50.696;4.396;2022-10-31T15:47:33;17.80;99.90
23100;DHT22;53791;50.696;4.396;2022-10-31T15:50:04;17.80;99.90
23100;DHT22;53791;50.696;4.396;2022-10-31T15:52:42;17.70;99.90
23100;DHT22;53791;50.696;4.396;2022-10-31T15:55:15;17.80;99.90
23100;DHT22;53791;50.696;4.396;2022-10-31T15:57:48;17.80;99.90
23100;DHT22;53791;50.696;4.396;2022-10-31T16:00:34;17.90;99.90
23100;DHT22;53791;50.696;4.396;2022-10-31T16:03:23;17.80;99.90
23100;DHT22;53791;50.696;4.396;2022-10-31T16:06:00;17.80;99.90
23100;DHT22;53791;50.696;4.396;2022-10-31T16:08:32;17.80;99.90
23100;DHT22;53791;50.696;4.396;2022-10-31T16:11:15;17.70;99.90
23100;DHT22;53791;50.696;4.396;2022-10-31T16:13:52;17.60;99.90
23100;DHT22;53791;50.696;4.396;2022-10-31T16:16:15;17.70;99.90
23100;DHT22;53791;50.696;4.396;2022-10-31T16:18:44;17.70;99.90
23100;DHT22;53791;50.696;4.396;2022-10-31T16:21:12;17.70;99.90
23100;DHT22;53791;50.696;4.396;2022-10-31T16:23:44;17.70;99.90
23100;DHT22;53791;50.696;4.396;2022-10-31T16:26:16;17.50;99.90
23100;DHT22;53791;50.696;4.396;2022-10-31T16:29:04;17.50;99.90
23100;DHT22;53791;50.696;4.396;2022-10-31T16:31:36;17.50;99.90
23100;DHT22;53791;50.696;4.396;2022-10-31T16:34:16;17.50;99.90
23100;DHT22;53791;50.696;4.396;2022-10-31T16:36:44;17.50;99.90
23100;DHT22;53791;50.696;4.396;2022-10-31T16:39:12;17.50;99.90
23100;DHT22;53791;50.696;4.396;2022-10-31T16:41:42;17.50;99.90
23100;DHT22;53791;50.696;4.396;2022-10-31T16:44:24;17.40;99.90
23100;DHT22;53791;50.696;4.396;2022-10-31T16:49:39;17.20;99.90
23100;DHT22;53791;50.696;4.396;2022-10-31T16:52:07;17.20;99.90
23100;DHT22;53791;50.696;4.396;2022-10-31T16:54:34;17.10;99.90
23100;DHT22;53791;50.696;4.396;2022-10-31T16:57:03;17.10;99.90
23100;DHT22;53791;50.696;4.396;2022-10-31T16:59:32;17.10;99.90
23100;DHT22;53791;50.696;4.396;2022-10-31T17:02:03;17.10;99.90
23100;DHT22;53791;50.696;4.396;2022-10-31T17:04:30;17.10;99.90
23100;DHT22;53791;50.696;4.396;2022-10-31T17:06:58;17.10;99.90
23100;DHT22;53791;50.696;4.396;2022-10-31T17:09:26;17.00;99.90
23100;DHT22;53791;50.696;4.396;2022-10-31T17:11:54;16.90;99.90
23100;DHT22;53791;50.696;4.396;2022-10-31T17:14:21;16.80;99.90
23100;DHT22;53791;50.696;4.396;2022-10-31T17:16:49;16.80;99.90
23100;DHT22;53791;50.696;4.396;2022-10-31T17:19:16;16.80;99.90
23100;DHT22;53791;50.696;4.396;2022-10-31T17:21:44;16.70;99.90
23100;DHT22;53791;50.696;4.396;2022-10-31T17:24:13;16.80;99.90
23100;DHT22;53791;50.696;4.396;2022-10-31T17:26:41;16.80;99.90
23100;DHT22;53791;50.696;4.396;2022-10-31T17:29:09;16.80;99.90
23100;DHT22;53791;50.696;4.396;2022-10-31T17:31:36;16.80;99.90
23100;DHT22;53791;50.696;4.396;2022-10-31T17:34:05;16.80;99.90
23100;DHT22;53791;50.696;4.396;2022-10-31T17:36:34;16.70;99.90
23100;DHT22;53791;50.696;4.396;2022-10-31T17:39:03;16.70;99.90
23100;DHT22;53791;50.696;4.396;2022-10-31T17:41:32;16.60;99.90
23100;DHT22;53791;50.696;4.396;2022-10-31T17:44:00;16.60;99.90
23100;DHT22;53791;50.696;4.396;2022-10-31T17:46:28;16.60;99.90
23100;DHT22;53791;50.696;4.396;2022-10-31T17:48:55;16.50;99.90
23100;DHT22;53791;50.696;4.396;2022-10-31T17:51:25;16.50;99.90
23100;DHT22;53791;50.696;4.396;2022-10-31T17:53:53;16.50;99.90